This is the latest recevied weather packets stored in our database for station/object AA7F. If no packets are shown the sender has not sent any weather packets the latest 10 day(s).
| Time | Temp. | Humidity | Pressure | Rain* | Wind** | Luminosity | Snow |
|---|---|---|---|---|---|---|---|
| 1777777978 | 21.67° C | 38% | 1011.2 hPa | 0 mm | - | 0 W/m² | - |
| 1777777674 | 22.22° C | 41% | 1011.1 hPa | 0 mm | - | 0 W/m² | - |
| 1777777370 | 22.22° C | 39% | 1011 hPa | 0 mm | - | 0 W/m² | - |
| 1777777067 | 22.78° C | 37% | 1010.9 hPa | 0 mm | - | 2 W/m² | - |
| 1777776765 | 22.78° C | 37% | 1011 hPa | 0 mm | - | 4 W/m² | - |
| 1777776462 | 22.78° C | 38% | 1011 hPa | 0 mm | - | 7 W/m² | - |
| 1777776158 | 22.78° C | 38% | 1010.9 hPa | 0 mm | - | 10 W/m² | - |
| 1777775855 | 22.78° C | 38% | 1010.9 hPa | 0 mm | - | 13 W/m² | - |
| 1777775552 | 23.33° C | 38% | 1010.9 hPa | 0 mm | - | 16 W/m² | - |
| 1777775248 | 23.33° C | 38% | 1010.7 hPa | 0 mm | - | 19 W/m² | - |
| 1777774948 | 23.33° C | 37% | 1010.9 hPa | 0 mm | - | 23 W/m² | - |
| 1777774645 | 23.33° C | 39% | 1010.9 hPa | 0 mm | - | 26 W/m² | - |
| 1777774341 | 23.33° C | 40% | 1010.8 hPa | 0 mm | - | 28 W/m² | - |
| 1777774039 | 23.33° C | 38% | 1010.9 hPa | 0 mm | - | 30 W/m² | - |
| 1777773737 | 23.33° C | 39% | 1010.9 hPa | 0 mm | - | 33 W/m² | - |
| 1777773433 | 23.33° C | 39% | 1010.9 hPa | 0 mm | - | 34 W/m² | - |
| 1777772826 | 23.33° C | 41% | 1011.1 hPa | 0 mm | - | 39 W/m² | - |
| 1777772221 | 23.89° C | 42% | 1010.6 hPa | 0 mm | - | 47 W/m² | - |
| 1777771919 | 25° C | 41% | 1010.8 hPa | 0 mm | - | 75 W/m² | - |
| 1777771616 | 25.56° C | 37% | 1010.8 hPa | 0 mm | - | 63 W/m² | - |
| 1777771313 | 26.11° C | 38% | 1010.8 hPa | 0 mm | - | 110 W/m² | - |
| 1777771009 | 26.67° C | 35% | 1010.6 hPa | 0 mm | - | 72 W/m² | - |
| 1777769797 | 26.67° C | 32% | 1011 hPa | 0 mm | - | 183 W/m² | - |
| 1777768585 | 26.67° C | 26% | 1011 hPa | 0 mm | - | 220 W/m² | - |
| 1777768282 | 27.22° C | 27% | 1010.9 hPa | 0 mm | - | 218 W/m² | - |
* Rain latest hour (hover to see other rain measurements)
** Current wind speed in m/s (hover to see current wind gust speed)